sensor_id;sensor_type;location;lat;lon;timestamp;temperature;humidity
9403;DHT22;4741;49.834;10.740;2023-11-19T00:02:26;5.10;99.90
9403;DHT22;4741;49.834;10.740;2023-11-19T00:04:53;5.10;99.90
9403;DHT22;4741;49.834;10.740;2023-11-19T00:07:20;5.10;99.90
9403;DHT22;4741;49.834;10.740;2023-11-19T00:09:50;5.10;99.90
9403;DHT22;4741;49.834;10.740;2023-11-19T00:12:16;5.20;99.90
9403;DHT22;4741;49.834;10.740;2023-11-19T00:14:43;4.90;99.90
9403;DHT22;4741;49.834;10.740;2023-11-19T00:17:10;5.20;99.90
9403;DHT22;4741;49.834;10.740;2023-11-19T00:19:37;5.20;99.90
9403;DHT22;4741;49.834;10.740;2023-11-19T00:22:04;4.90;99.90
9403;DHT22;4741;49.834;10.740;2023-11-19T00:24:31;5.20;99.90
9403;DHT22;4741;49.834;10.740;2023-11-19T00:26:58;4.80;99.90
9403;DHT22;4741;49.834;10.740;2023-11-19T00:29:25;5.20;99.90
9403;DHT22;4741;49.834;10.740;2023-11-19T00:31:51;5.30;99.90
9403;DHT22;4741;49.834;10.740;2023-11-19T00:34:18;5.20;99.90
9403;DHT22;4741;49.834;10.740;2023-11-19T00:36:48;5.20;99.90
9403;DHT22;4741;49.834;10.740;2023-11-19T00:41:42;5.30;99.90
9403;DHT22;4741;49.834;10.740;2023-11-19T00:44:09;5.20;99.90
9403;DHT22;4741;49.834;10.740;2023-11-19T00:46:35;5.30;99.90
9403;DHT22;4741;49.834;10.740;2023-11-19T00:49:03;5.30;99.90
9403;DHT22;4741;49.834;10.740;2023-11-19T00:51:30;5.30;99.90
9403;DHT22;4741;49.834;10.740;2023-11-19T00:53:58;5.30;99.90
9403;DHT22;4741;49.834;10.740;2023-11-19T00:56:25;5.30;99.90
9403;DHT22;4741;49.834;10.740;2023-11-19T00:58:52;5.30;99.90
9403;DHT22;4741;49.834;10.740;2023-11-19T01:03:50;5.40;99.90
9403;DHT22;4741;49.834;10.740;2023-11-19T01:06:26;5.40;99.90
9403;DHT22;4741;49.834;10.740;2023-11-19T01:08:53;5.30;99.90
9403;DHT22;4741;49.834;10.740;2023-11-19T01:11:20;5.40;99.90
9403;DHT22;4741;49.834;10.740;2023-11-19T01:13:47;5.30;99.90
9403;DHT22;4741;49.834;10.740;2023-11-19T01:16:14;5.30;99.90
9403;DHT22;4741;49.834;10.740;2023-11-19T01:18:41;5.30;99.90
9403;DHT22;4741;49.834;10.740;2023-11-19T01:21:08;5.30;99.90
9403;DHT22;4741;49.834;10.740;2023-11-19T01:23:35;5.30;99.90
9403;DHT22;4741;49.834;10.740;2023-11-19T01:26:02;5.40;99.90
9403;DHT22;4741;49.834;10.740;2023-11-19T01:28:28;6.00;99.90
9403;DHT22;4741;49.834;10.740;2023-11-19T01:33:24;5.40;99.90
9403;DHT22;4741;49.834;10.740;2023-11-19T01:35:51;5.30;99.90
9403;DHT22;4741;49.834;10.740;2023-11-19T01:38:18;5.30;99.90
9403;DHT22;4741;49.834;10.740;2023-11-19T01:40:44;5.30;99.90
9403;DHT22;4741;49.834;10.740;2023-11-19T01:43:11;5.40;99.90
9403;DHT22;4741;49.834;10.740;2023-11-19T01:45:38;5.40;99.90
9403;DHT22;4741;49.834;10.740;2023-11-19T01:48:06;5.40;99.90
9403;DHT22;4741;49.834;10.740;2023-11-19T01:50:33;5.10;99.90
9403;DHT22;4741;49.834;10.740;2023-11-19T01:53:00;5.30;99.90
9403;DHT22;4741;49.834;10.740;2023-11-19T01:55:27;5.30;99.90
9403;DHT22;4741;49.834;10.740;2023-11-19T01:57:59;5.30;99.90
9403;DHT22;4741;49.834;10.740;2023-11-19T02:00:26;5.30;99.90
9403;DHT22;4741;49.834;10.740;2023-11-19T02:02:52;5.30;99.90
9403;DHT22;4741;49.834;10.740;2023-11-19T02:05:21;5.20;99.90
9403;DHT22;4741;49.834;10.740;2023-11-19T02:07:48;5.30;99.90
9403;DHT22;4741;49.834;10.740;2023-11-19T02:10:16;5.30;99.90
9403;DHT22;4741;49.834;10.740;2023-11-19T02:12:45;5.20;99.90
9403;DHT22;4741;49.834;10.740;2023-11-19T02:15:12;5.20;99.90
9403;DHT22;4741;49.834;10.740;2023-11-19T02:17:39;5.30;99.90
9403;DHT22;4741;49.834;10.740;2023-11-19T02:20:06;5.30;99.90
9403;DHT22;4741;49.834;10.740;2023-11-19T02:22:38;5.30;99.90
9403;DHT22;4741;49.834;10.740;2023-11-19T02:25:07;5.30;99.90
9403;DHT22;4741;49.834;10.740;2023-11-19T02:30:05;5.40;99.90
9403;DHT22;4741;49.834;10.740;2023-11-19T02:32:35;5.40;99.90
9403;DHT22;4741;49.834;10.740;2023-11-19T02:35:02;5.40;99.90
9403;DHT22;4741;49.834;10.740;2023-11-19T02:37:31;5.30;99.90
9403;DHT22;4741;49.834;10.740;2023-11-19T02:39:58;5.30;99.90
9403;DHT22;4741;49.834;10.740;2023-11-19T02:42:36;5.30;99.90
9403;DHT22;4741;49.834;10.740;2023-11-19T02:45:03;5.40;99.90
9403;DHT22;4741;49.834;10.740;2023-11-19T02:47:33;5.40;99.90
9403;DHT22;4741;49.834;10.740;2023-11-19T02:50:00;5.00;99.90
9403;DHT22;4741;49.834;10.740;2023-11-19T02:52:27;5.40;99.90
9403;DHT22;4741;49.834;10.740;2023-11-19T02:57:22;5.50;99.90
9403;DHT22;4741;49.834;10.740;2023-11-19T02:59:49;5.50;99.90
9403;DHT22;4741;49.834;10.740;2023-11-19T03:02:15;5.40;99.90
9403;DHT22;4741;49.834;10.740;2023-11-19T03:04:44;5.40;99.90
9403;DHT22;4741;49.834;10.740;2023-11-19T03:07:12;5.40;99.90
9403;DHT22;4741;49.834;10.740;2023-11-19T03:09:40;5.50;99.90
9403;DHT22;4741;49.834;10.740;2023-11-19T03:12:07;5.50;99.90
9403;DHT22;4741;49.834;10.740;2023-11-19T03:14:34;5.50;99.90
9403;DHT22;4741;49.834;10.740;2023-11-19T03:17:04;5.60;99.90
9403;DHT22;4741;49.834;10.740;2023-11-19T03:19:31;5.60;99.90
9403;DHT22;4741;49.834;10.740;2023-11-19T03:21:58;5.60;99.90
9403;DHT22;4741;49.834;10.740;2023-11-19T03:24:26;5.60;99.90
9403;DHT22;4741;49.834;10.740;2023-11-19T03:26:52;5.50;99.90
9403;DHT22;4741;49.834;10.740;2023-11-19T03:29:20;5.60;99.90
9403;DHT22;4741;49.834;10.740;2023-11-19T03:31:47;5.60;99.90
9403;DHT22;4741;49.834;10.740;2023-11-19T04:01:15;5.80;99.90
9403;DHT22;4741;49.834;10.740;2023-11-19T04:03:41;5.90;99.90
9403;DHT22;4741;49.834;10.740;2023-11-19T04:06:11;5.80;99.90
9403;DHT22;4741;49.834;10.740;2023-11-19T04:08:37;5.80;99.90
9403;DHT22;4741;49.834;10.740;2023-11-19T04:11:04;5.80;99.90
9403;DHT22;4741;49.834;10.740;2023-11-19T04:13:31;5.90;99.90
9403;DHT22;4741;49.834;10.740;2023-11-19T04:15:59;5.90;99.90
9403;DHT22;4741;49.834;10.740;2023-11-19T04:18:25;5.90;99.90
9403;DHT22;4741;49.834;10.740;2023-11-19T04:20:53;5.90;99.90
9403;DHT22;4741;49.834;10.740;2023-11-19T04:23:19;5.90;99.90
9403;DHT22;4741;49.834;10.740;2023-11-19T04:25:46;5.90;99.90
9403;DHT22;4741;49.834;10.740;2023-11-19T04:28:12;5.90;99.90
9403;DHT22;4741;49.834;10.740;2023-11-19T04:30:39;5.60;99.90
9403;DHT22;4741;49.834;10.740;2023-11-19T04:33:06;5.90;99.90
9403;DHT22;4741;49.834;10.740;2023-11-19T04:35:33;5.90;99.90
9403;DHT22;4741;49.834;10.740;2023-11-19T04:37:59;6.00;99.90
9403;DHT22;4741;49.834;10.740;2023-11-19T04:40:26;6.00;99.90
9403;DHT22;4741;49.834;10.740;2023-11-19T04:42:53;6.10;99.90
9403;DHT22;4741;49.834;10.740;2023-11-19T04:45:19;5.60;99.90
9403;DHT22;4741;49.834;10.740;2023-11-19T04:47:46;6.10;99.90
9403;DHT22;4741;49.834;10.740;2023-11-19T04:50:13;6.80;99.90
9403;DHT22;4741;49.834;10.740;2023-11-19T04:52:40;6.00;99.90
9403;DHT22;4741;49.834;10.740;2023-11-19T04:57:34;6.60;99.90
9403;DHT22;4741;49.834;10.740;2023-11-19T05:00:00;6.80;99.90
9403;DHT22;4741;49.834;10.740;2023-11-19T05:02:27;6.80;99.90
9403;DHT22;4741;49.834;10.740;2023-11-19T05:07:21;6.90;99.90
9403;DHT22;4741;49.834;10.740;2023-11-19T05:09:48;7.00;99.90
9403;DHT22;4741;49.834;10.740;2023-11-19T05:12:19;7.10;99.90
9403;DHT22;4741;49.834;10.740;2023-11-19T05:14:46;7.00;99.90
9403;DHT22;4741;49.834;10.740;2023-11-19T05:17:19;7.00;99.90
9403;DHT22;4741;49.834;10.740;2023-11-19T05:19:46;7.00;99.90
9403;DHT22;4741;49.834;10.740;2023-11-19T05:22:14;6.90;99.90
9403;DHT22;4741;49.834;10.740;2023-11-19T05:24:41;6.70;99.90
9403;DHT22;4741;49.834;10.740;2023-11-19T05:27:07;7.00;99.90
9403;DHT22;4741;49.834;10.740;2023-11-19T05:29:34;6.50;99.90
9403;DHT22;4741;49.834;10.740;2023-11-19T05:32:01;6.90;99.90
9403;DHT22;4741;49.834;10.740;2023-11-19T05:34:28;6.90;99.90
9403;DHT22;4741;49.834;10.740;2023-11-19T05:36:55;7.00;99.90
9403;DHT22;4741;49.834;10.740;2023-11-19T05:39:22;7.00;99.90
9403;DHT22;4741;49.834;10.740;2023-11-19T05:41:49;8.20;99.90
9403;DHT22;4741;49.834;10.740;2023-11-19T05:44:15;7.00;99.90
9403;DHT22;4741;49.834;10.740;2023-11-19T05:46:42;7.00;99.90
9403;DHT22;4741;49.834;10.740;2023-11-19T05:49:10;7.00;99.90
9403;DHT22;4741;49.834;10.740;2023-11-19T05:51:38;6.70;99.90
9403;DHT22;4741;49.834;10.740;2023-11-19T05:54:06;6.90;99.90
9403;DHT22;4741;49.834;10.740;2023-11-19T05:59:01;7.10;99.90
9403;DHT22;4741;49.834;10.740;2023-11-19T06:01:30;7.10;99.90
9403;DHT22;4741;49.834;10.740;2023-11-19T06:03:56;6.90;99.90
9403;DHT22;4741;49.834;10.740;2023-11-19T06:06:23;7.60;99.90
9403;DHT22;4741;49.834;10.740;2023-11-19T06:08:50;7.20;99.90
9403;DHT22;4741;49.834;10.740;2023-11-19T06:11:17;7.30;99.90
9403;DHT22;4741;49.834;10.740;2023-11-19T06:13:47;7.50;99.90
9403;DHT22;4741;49.834;10.740;2023-11-19T06:16:18;7.40;99.90
9403;DHT22;4741;49.834;10.740;2023-11-19T06:21:12;7.60;99.90
9403;DHT22;4741;49.834;10.740;2023-11-19T06:23:39;7.50;99.90
9403;DHT22;4741;49.834;10.740;2023-11-19T06:26:06;7.50;99.90
9403;DHT22;4741;49.834;10.740;2023-11-19T06:28:32;8.00;99.90
9403;DHT22;4741;49.834;10.740;2023-11-19T06:30:59;8.00;99.90
9403;DHT22;4741;49.834;10.740;2023-11-19T06:33:27;7.40;99.90
9403;DHT22;4741;49.834;10.740;2023-11-19T06:35:54;7.50;99.90
9403;DHT22;4741;49.834;10.740;2023-11-19T06:38:21;7.60;99.90
9403;DHT22;4741;49.834;10.740;2023-11-19T06:40:48;7.50;99.90
9403;DHT22;4741;49.834;10.740;2023-11-19T06:43:19;7.60;99.90
9403;DHT22;4741;49.834;10.740;2023-11-19T06:45:46;7.60;99.90
9403;DHT22;4741;49.834;10.740;2023-11-19T06:48:12;7.60;99.90
9403;DHT22;4741;49.834;10.740;2023-11-19T06:50:39;7.60;99.90
9403;DHT22;4741;49.834;10.740;2023-11-19T06:53:06;7.70;99.90
9403;DHT22;4741;49.834;10.740;2023-11-19T06:55:36;7.60;99.90
9403;DHT22;4741;49.834;10.740;2023-11-19T06:58:03;7.90;99.90
9403;DHT22;4741;49.834;10.740;2023-11-19T07:02:59;8.30;99.90
9403;DHT22;4741;49.834;10.740;2023-11-19T07:05:26;8.50;99.90
9403;DHT22;4741;49.834;10.740;2023-11-19T07:07:53;8.80;99.90
9403;DHT22;4741;49.834;10.740;2023-11-19T07:10:21;8.70;99.90
9403;DHT22;4741;49.834;10.740;2023-11-19T07:12:48;8.90;99.90
9403;DHT22;4741;49.834;10.740;2023-11-19T07:15:16;9.00;99.90
9403;DHT22;4741;49.834;10.740;2023-11-19T07:17:44;9.00;99.90
9403;DHT22;4741;49.834;10.740;2023-11-19T07:20:11;8.80;99.90
9403;DHT22;4741;49.834;10.740;2023-11-19T07:22:45;8.80;99.90
9403;DHT22;4741;49.834;10.740;2023-11-19T07:25:15;8.70;99.90
9403;DHT22;4741;49.834;10.740;2023-11-19T07:27:42;8.80;99.90
9403;DHT22;4741;49.834;10.740;2023-11-19T07:30:09;8.10;99.90
9403;DHT22;4741;49.834;10.740;2023-11-19T07:32:36;8.80;99.90
9403;DHT22;4741;49.834;10.740;2023-11-19T07:35:05;8.80;99.90
9403;DHT22;4741;49.834;10.740;2023-11-19T07:37:32;8.90;99.90
9403;DHT22;4741;49.834;10.740;2023-11-19T07:39:59;9.00;99.90
9403;DHT22;4741;49.834;10.740;2023-11-19T07:42:26;8.90;99.90
9403;DHT22;4741;49.834;10.740;2023-11-19T07:44:53;8.90;99.90
9403;DHT22;4741;49.834;10.740;2023-11-19T07:47:21;8.90;99.90
9403;DHT22;4741;49.834;10.740;2023-11-19T07:49:50;8.90;99.90
9403;DHT22;4741;49.834;10.740;2023-11-19T07:52:17;9.00;99.90
9403;DHT22;4741;49.834;10.740;2023-11-19T07:54:47;9.20;99.90
9403;DHT22;4741;49.834;10.740;2023-11-19T07:57:14;9.20;99.90
9403;DHT22;4741;49.834;10.740;2023-11-19T07:59:41;9.30;99.90
9403;DHT22;4741;49.834;10.740;2023-11-19T08:02:08;9.20;99.90
9403;DHT22;4741;49.834;10.740;2023-11-19T08:04:35;9.20;99.90
9403;DHT22;4741;49.834;10.740;2023-11-19T08:07:02;9.20;99.90
9403;DHT22;4741;49.834;10.740;2023-11-19T08:09:29;9.20;99.90
9403;DHT22;4741;49.834;10.740;2023-11-19T08:11:56;9.30;99.90
9403;DHT22;4741;49.834;10.740;2023-11-19T08:14:23;9.40;99.90
9403;DHT22;4741;49.834;10.740;2023-11-19T08:16:50;9.40;99.90
9403;DHT22;4741;49.834;10.740;2023-11-19T08:19:17;9.30;99.90
9403;DHT22;4741;49.834;10.740;2023-11-19T08:21:44;9.30;99.90
9403;DHT22;4741;49.834;10.740;2023-11-19T08:24:11;9.80;99.90
9403;DHT22;4741;49.834;10.740;2023-11-19T08:26:38;9.50;99.90
9403;DHT22;4741;49.834;10.740;2023-11-19T08:29:05;9.30;99.90
9403;DHT22;4741;49.834;10.740;2023-11-19T08:31:32;9.30;99.90
9403;DHT22;4741;49.834;10.740;2023-11-19T08:33:58;9.50;99.90
9403;DHT22;4741;49.834;10.740;2023-11-19T08:36:25;9.70;99.90
9403;DHT22;4741;49.834;10.740;2023-11-19T08:38:52;9.80;99.90
9403;DHT22;4741;49.834;10.740;2023-11-19T08:41:20;9.80;99.90
9403;DHT22;4741;49.834;10.740;2023-11-19T08:43:48;9.80;99.90
9403;DHT22;4741;49.834;10.740;2023-11-19T08:46:15;9.90;99.90
9403;DHT22;4741;49.834;10.740;2023-11-19T08:48:41;9.90;99.90
9403;DHT22;4741;49.834;10.740;2023-11-19T08:51:08;10.00;99.90
9403;DHT22;4741;49.834;10.740;2023-11-19T08:53:35;10.10;99.90
9403;DHT22;4741;49.834;10.740;2023-11-19T08:56:02;10.20;99.90
9403;DHT22;4741;49.834;10.740;2023-11-19T08:58:30;10.20;99.90
9403;DHT22;4741;49.834;10.740;2023-11-19T09:00:57;10.10;99.90
9403;DHT22;4741;49.834;10.740;2023-11-19T09:03:24;10.10;99.90
9403;DHT22;4741;49.834;10.740;2023-11-19T09:05:57;10.20;99.90
9403;DHT22;4741;49.834;10.740;2023-11-19T09:08:23;10.10;99.90
9403;DHT22;4741;49.834;10.740;2023-11-19T09:13:17;10.30;99.90
9403;DHT22;4741;49.834;10.740;2023-11-19T09:15:44;10.20;99.90
9403;DHT22;4741;49.834;10.740;2023-11-19T09:18:11;10.30;99.90
9403;DHT22;4741;49.834;10.740;2023-11-19T09:20:38;10.50;99.90
9403;DHT22;4741;49.834;10.740;2023-11-19T09:23:05;10.30;99.90
9403;DHT22;4741;49.834;10.740;2023-11-19T09:25:33;10.60;99.90
9403;DHT22;4741;49.834;10.740;2023-11-19T09:28:02;10.90;99.90
9403;DHT22;4741;49.834;10.740;2023-11-19T09:32:57;11.10;99.90
9403;DHT22;4741;49.834;10.740;2023-11-19T09:35:24;11.00;99.90
9403;DHT22;4741;49.834;10.740;2023-11-19T09:37:50;11.10;99.90
9403;DHT22;4741;49.834;10.740;2023-11-19T09:40:17;11.00;99.90
9403;DHT22;4741;49.834;10.740;2023-11-19T09:42:44;11.10;99.90
9403;DHT22;4741;49.834;10.740;2023-11-19T09:45:13;11.10;99.90
9403;DHT22;4741;49.834;10.740;2023-11-19T09:47:42;11.20;99.90
9403;DHT22;4741;49.834;10.740;2023-11-19T09:50:10;11.20;99.90
9403;DHT22;4741;49.834;10.740;2023-11-19T09:52:39;11.30;99.90
9403;DHT22;4741;49.834;10.740;2023-11-19T09:55:05;11.50;99.90
9403;DHT22;4741;49.834;10.740;2023-11-19T09:57:33;11.60;99.90
9403;DHT22;4741;49.834;10.740;2023-11-19T10:02:31;12.30;99.90
9403;DHT22;4741;49.834;10.740;2023-11-19T10:04:59;12.30;99.90
9403;DHT22;4741;49.834;10.740;2023-11-19T10:07:30;12.10;99.90
9403;DHT22;4741;49.834;10.740;2023-11-19T10:09:59;12.20;99.90
9403;DHT22;4741;49.834;10.740;2023-11-19T10:12:27;12.30;99.90
9403;DHT22;4741;49.834;10.740;2023-11-19T10:14:57;12.50;99.90
9403;DHT22;4741;49.834;10.740;2023-11-19T10:17:34;13.00;99.90
9403;DHT22;4741;49.834;10.740;2023-11-19T10:20:01;13.10;99.90
9403;DHT22;4741;49.834;10.740;2023-11-19T10:22:28;13.30;99.90
9403;DHT22;4741;49.834;10.740;2023-11-19T10:24:55;12.50;99.90
9403;DHT22;4741;49.834;10.740;2023-11-19T10:27:25;12.80;99.90
9403;DHT22;4741;49.834;10.740;2023-11-19T10:29:52;12.90;99.90
9403;DHT22;4741;49.834;10.740;2023-11-19T10:32:19;12.80;99.90
9403;DHT22;4741;49.834;10.740;2023-11-19T10:35:03;12.70;99.90
9403;DHT22;4741;49.834;10.740;2023-11-19T10:37:31;12.70;99.90
9403;DHT22;4741;49.834;10.740;2023-11-19T10:39:59;13.10;99.90
9403;DHT22;4741;49.834;10.740;2023-11-19T10:42:26;13.20;99.90
9403;DHT22;4741;49.834;10.740;2023-11-19T10:44:53;13.30;99.90
9403;DHT22;4741;49.834;10.740;2023-11-19T10:50:03;13.50;99.90
9403;DHT22;4741;49.834;10.740;2023-11-19T10:52:30;13.30;99.90
9403;DHT22;4741;49.834;10.740;2023-11-19T10:54:58;13.50;99.90
9403;DHT22;4741;49.834;10.740;2023-11-19T10:57:26;13.60;99.90
9403;DHT22;4741;49.834;10.740;2023-11-19T10:59:59;14.30;99.90
9403;DHT22;4741;49.834;10.740;2023-11-19T11:02:28;13.00;99.90
9403;DHT22;4741;49.834;10.740;2023-11-19T11:04:55;12.80;99.90
9403;DHT22;4741;49.834;10.740;2023-11-19T11:07:23;14.00;99.90
9403;DHT22;4741;49.834;10.740;2023-11-19T11:14:59;13.90;99.90
9403;DHT22;4741;49.834;10.740;2023-11-19T11:17:27;13.70;99.90
9403;DHT22;4741;49.834;10.740;2023-11-19T11:19:54;13.10;99.90
9403;DHT22;4741;49.834;10.740;2023-11-19T11:22:21;12.90;99.90
9403;DHT22;4741;49.834;10.740;2023-11-19T11:32:36;12.60;99.90
9403;DHT22;4741;49.834;10.740;2023-11-19T11:46:56;12.80;99.90
9403;DHT22;4741;49.834;10.740;2023-11-19T11:52:11;12.40;99.90
9403;DHT22;4741;49.834;10.740;2023-11-19T11:54:40;12.20;99.90
9403;DHT22;4741;49.834;10.740;2023-11-19T11:57:08;11.70;99.90
9403;DHT22;4741;49.834;10.740;2023-11-19T12:02:09;12.00;99.90
9403;DHT22;4741;49.834;10.740;2023-11-19T12:04:36;11.90;99.90
9403;DHT22;4741;49.834;10.740;2023-11-19T12:07:07;11.80;99.90
9403;DHT22;4741;49.834;10.740;2023-11-19T12:09:36;11.70;99.90
9403;DHT22;4741;49.834;10.740;2023-11-19T12:12:17;11.10;99.90
9403;DHT22;4741;49.834;10.740;2023-11-19T12:15:07;11.70;99.90
9403;DHT22;4741;49.834;10.740;2023-11-19T12:17:41;11.80;99.90
9403;DHT22;4741;49.834;10.740;2023-11-19T12:20:08;11.80;99.90
9403;DHT22;4741;49.834;10.740;2023-11-19T12:22:38;11.80;99.90
9403;DHT22;4741;49.834;10.740;2023-11-19T12:25:20;11.80;99.90
9403;DHT22;4741;49.834;10.740;2023-11-19T12:27:49;11.80;99.90
9403;DHT22;4741;49.834;10.740;2023-11-19T12:30:17;11.70;99.90
9403;DHT22;4741;49.834;10.740;2023-11-19T12:35:12;14.20;99.90
9403;DHT22;4741;49.834;10.740;2023-11-19T12:37:48;14.50;99.90
9403;DHT22;4741;49.834;10.740;2023-11-19T12:40:19;13.90;99.90
9403;DHT22;4741;49.834;10.740;2023-11-19T12:42:46;13.40;99.90
9403;DHT22;4741;49.834;10.740;2023-11-19T12:45:14;12.90;99.90
9403;DHT22;4741;49.834;10.740;2023-11-19T12:47:40;12.50;99.90
9403;DHT22;4741;49.834;10.740;2023-11-19T12:50:08;12.10;99.90
9403;DHT22;4741;49.834;10.740;2023-11-19T12:55:05;12.10;99.90
9403;DHT22;4741;49.834;10.740;2023-11-19T12:57:53;12.10;99.90
9403;DHT22;4741;49.834;10.740;2023-11-19T13:00:25;12.20;99.90
9403;DHT22;4741;49.834;10.740;2023-11-19T13:02:53;12.40;99.90
9403;DHT22;4741;49.834;10.740;2023-11-19T13:05:21;12.50;99.90
9403;DHT22;4741;49.834;10.740;2023-11-19T13:20:07;23.90;99.90
9403;DHT22;4741;49.834;10.740;2023-11-19T13:22:34;23.10;99.90
9403;DHT22;4741;49.834;10.740;2023-11-19T13:25:01;19.10;99.90
9403;DHT22;4741;49.834;10.740;2023-11-19T13:27:28;17.60;99.90
9403;DHT22;4741;49.834;10.740;2023-11-19T13:32:22;15.30;99.90
9403;DHT22;4741;49.834;10.740;2023-11-19T13:37:16;17.70;99.90
9403;DHT22;4741;49.834;10.740;2023-11-19T13:39:43;19.40;99.90
9403;DHT22;4741;49.834;10.740;2023-11-19T13:42:16;21.30;99.90
9403;DHT22;4741;49.834;10.740;2023-11-19T13:45:23;20.80;99.90
9403;DHT22;4741;49.834;10.740;2023-11-19T13:51:14;19.00;99.90
9403;DHT22;4741;49.834;10.740;2023-11-19T13:54:08;18.20;99.90
9403;DHT22;4741;49.834;10.740;2023-11-19T13:56:35;20.10;99.90
9403;DHT22;4741;49.834;10.740;2023-11-19T13:59:02;20.00;99.90
9403;DHT22;4741;49.834;10.740;2023-11-19T14:01:28;20.20;99.90
9403;DHT22;4741;49.834;10.740;2023-11-19T14:03:55;19.40;99.90
9403;DHT22;4741;49.834;10.740;2023-11-19T14:06:22;19.70;99.90
9403;DHT22;4741;49.834;10.740;2023-11-19T14:08:48;19.70;99.90
9403;DHT22;4741;49.834;10.740;2023-11-19T14:11:15;18.70;99.90
9403;DHT22;4741;49.834;10.740;2023-11-19T14:13:42;18.70;99.90
9403;DHT22;4741;49.834;10.740;2023-11-19T14:16:09;17.90;99.90
9403;DHT22;4741;49.834;10.740;2023-11-19T14:25:57;14.00;99.90
9403;DHT22;4741;49.834;10.740;2023-11-19T14:30:52;13.30;99.90
9403;DHT22;4741;49.834;10.740;2023-11-19T14:33:25;14.00;99.90
9403;DHT22;4741;49.834;10.740;2023-11-19T14:35:52;15.40;99.90
9403;DHT22;4741;49.834;10.740;2023-11-19T14:38:19;16.50;99.90
9403;DHT22;4741;49.834;10.740;2023-11-19T14:41:30;15.20;99.90
9403;DHT22;4741;49.834;10.740;2023-11-19T14:49:00;13.00;99.90
9403;DHT22;4741;49.834;10.740;2023-11-19T14:51:27;12.60;99.90
9403;DHT22;4741;49.834;10.740;2023-11-19T14:53:53;12.50;99.90
9403;DHT22;4741;49.834;10.740;2023-11-19T14:56:20;12.10;99.90
9403;DHT22;4741;49.834;10.740;2023-11-19T14:58:47;12.10;99.90
9403;DHT22;4741;49.834;10.740;2023-11-19T15:03:41;12.00;99.90
9403;DHT22;4741;49.834;10.740;2023-11-19T15:06:11;11.40;99.90
9403;DHT22;4741;49.834;10.740;2023-11-19T15:08:38;11.40;99.90
9403;DHT22;4741;49.834;10.740;2023-11-19T15:13:33;11.60;99.90
9403;DHT22;4741;49.834;10.740;2023-11-19T15:16:00;11.60;99.90
9403;DHT22;4741;49.834;10.740;2023-11-19T15:18:26;11.80;99.90
9403;DHT22;4741;49.834;10.740;2023-11-19T15:20:54;11.50;99.90
9403;DHT22;4741;49.834;10.740;2023-11-19T15:23:21;11.30;99.90
9403;DHT22;4741;49.834;10.740;2023-11-19T15:25:48;11.10;99.90
9403;DHT22;4741;49.834;10.740;2023-11-19T15:28:15;11.30;99.90
9403;DHT22;4741;49.834;10.740;2023-11-19T15:33:09;11.20;99.90
9403;DHT22;4741;49.834;10.740;2023-11-19T15:35:36;11.20;99.90
9403;DHT22;4741;49.834;10.740;2023-11-19T15:38:02;11.20;99.90
9403;DHT22;4741;49.834;10.740;2023-11-19T15:40:29;11.10;99.90
9403;DHT22;4741;49.834;10.740;2023-11-19T15:42:56;11.10;99.90
9403;DHT22;4741;49.834;10.740;2023-11-19T15:45:24;11.10;99.90
9403;DHT22;4741;49.834;10.740;2023-11-19T15:47:50;11.00;99.90
9403;DHT22;4741;49.834;10.740;2023-11-19T15:50:17;11.10;99.90
9403;DHT22;4741;49.834;10.740;2023-11-19T15:52:44;11.20;99.90
9403;DHT22;4741;49.834;10.740;2023-11-19T15:55:11;11.20;99.90
9403;DHT22;4741;49.834;10.740;2023-11-19T15:57:38;11.20;99.90
9403;DHT22;4741;49.834;10.740;2023-11-19T16:00:05;11.30;99.90
9403;DHT22;4741;49.834;10.740;2023-11-19T16:09:26;11.30;99.90
9403;DHT22;4741;49.834;10.740;2023-11-19T16:12:40;11.40;99.90
9403;DHT22;4741;49.834;10.740;2023-11-19T16:16:10;11.40;99.90
9403;DHT22;4741;49.834;10.740;2023-11-19T16:18:37;11.50;99.90
9403;DHT22;4741;49.834;10.740;2023-11-19T16:21:04;11.50;99.90
9403;DHT22;4741;49.834;10.740;2023-11-19T16:23:30;11.40;99.90
9403;DHT22;4741;49.834;10.740;2023-11-19T16:25:57;11.40;99.90
9403;DHT22;4741;49.834;10.740;2023-11-19T16:28:24;11.30;99.90
9403;DHT22;4741;49.834;10.740;2023-11-19T16:30:50;11.00;99.90
9403;DHT22;4741;49.834;10.740;2023-11-19T16:35:55;10.60;99.90
9403;DHT22;4741;49.834;10.740;2023-11-19T16:38:23;10.40;99.90
9403;DHT22;4741;49.834;10.740;2023-11-19T16:40:50;10.20;99.90
9403;DHT22;4741;49.834;10.740;2023-11-19T16:43:18;10.10;99.90
9403;DHT22;4741;49.834;10.740;2023-11-19T16:45:45;10.10;99.90
9403;DHT22;4741;49.834;10.740;2023-11-19T16:48:12;10.10;99.90
9403;DHT22;4741;49.834;10.740;2023-11-19T16:50:39;10.10;99.90
9403;DHT22;4741;49.834;10.740;2023-11-19T16:53:06;10.30;99.90
9403;DHT22;4741;49.834;10.740;2023-11-19T16:55:33;10.40;99.90
9403;DHT22;4741;49.834;10.740;2023-11-19T16:58:01;10.40;99.90
9403;DHT22;4741;49.834;10.740;2023-11-19T17:00:28;10.40;99.90
9403;DHT22;4741;49.834;10.740;2023-11-19T17:02:55;10.40;99.90
9403;DHT22;4741;49.834;10.740;2023-11-19T17:05:25;10.30;99.90
9403;DHT22;4741;49.834;10.740;2023-11-19T17:07:52;10.20;99.90
9403;DHT22;4741;49.834;10.740;2023-11-19T17:10:20;10.30;99.90
9403;DHT22;4741;49.834;10.740;2023-11-19T17:12:46;10.20;99.90
9403;DHT22;4741;49.834;10.740;2023-11-19T17:15:13;10.20;99.90
9403;DHT22;4741;49.834;10.740;2023-11-19T17:17:39;10.20;99.90
9403;DHT22;4741;49.834;10.740;2023-11-19T17:20:07;10.10;99.90
9403;DHT22;4741;49.834;10.740;2023-11-19T17:22:36;10.00;99.90
9403;DHT22;4741;49.834;10.740;2023-11-19T17:25:03;9.90;99.90
9403;DHT22;4741;49.834;10.740;2023-11-19T17:27:32;9.80;99.90
9403;DHT22;4741;49.834;10.740;2023-11-19T17:29:59;9.70;99.90
9403;DHT22;4741;49.834;10.740;2023-11-19T17:32:27;9.70;99.90
9403;DHT22;4741;49.834;10.740;2023-11-19T17:34:54;9.80;99.90
9403;DHT22;4741;49.834;10.740;2023-11-19T17:37:21;9.90;99.90
9403;DHT22;4741;49.834;10.740;2023-11-19T17:39:48;9.90;99.90
9403;DHT22;4741;49.834;10.740;2023-11-19T17:42:15;10.00;99.90
9403;DHT22;4741;49.834;10.740;2023-11-19T17:44:42;9.90;99.90
9403;DHT22;4741;49.834;10.740;2023-11-19T17:47:09;9.90;99.90
9403;DHT22;4741;49.834;10.740;2023-11-19T17:49:36;10.00;99.90
9403;DHT22;4741;49.834;10.740;2023-11-19T17:52:08;10.00;99.90
9403;DHT22;4741;49.834;10.740;2023-11-19T17:54:36;10.10;99.90
9403;DHT22;4741;49.834;10.740;2023-11-19T17:57:04;10.20;99.90
9403;DHT22;4741;49.834;10.740;2023-11-19T17:59:31;10.20;99.90
9403;DHT22;4741;49.834;10.740;2023-11-19T18:01:58;10.10;99.90
9403;DHT22;4741;49.834;10.740;2023-11-19T18:04:26;10.10;99.90
9403;DHT22;4741;49.834;10.740;2023-11-19T18:06:53;10.00;99.90
9403;DHT22;4741;49.834;10.740;2023-11-19T18:09:20;9.90;99.90
9403;DHT22;4741;49.834;10.740;2023-11-19T18:11:47;9.70;99.90
9403;DHT22;4741;49.834;10.740;2023-11-19T18:14:16;9.30;99.90
9403;DHT22;4741;49.834;10.740;2023-11-19T18:16:43;9.80;99.90
9403;DHT22;4741;49.834;10.740;2023-11-19T18:19:10;9.50;99.90
9403;DHT22;4741;49.834;10.740;2023-11-19T18:24:06;9.50;99.90
9403;DHT22;4741;49.834;10.740;2023-11-19T18:26:33;9.60;99.90
9403;DHT22;4741;49.834;10.740;2023-11-19T18:29:02;9.70;99.90
9403;DHT22;4741;49.834;10.740;2023-11-19T18:31:30;9.80;99.90
9403;DHT22;4741;49.834;10.740;2023-11-19T18:33:59;9.70;99.90